Time;durP1;ratioP1;P1;durP2;ratioP2;P2;SDS_P1;SDS_P2;PMS_P1;PMS_P2;Temp;Humidity;BMP_temperature;BMP_pressure;BME280_temperature;BME280_humidity;BME280_pressure;Samples;Min_cycle;Max_cycle;Signal;HPM_P1;HPM_P2
2022/07/11 00:02:19;;;;;;;0.03;0.03;;;;;;;;;;5049864;28;20339;-71
2022/07/11 00:04:46;;;;;;;0.10;0.10;;;;;;;;;;5044406;28;20205;-70
2022/07/11 00:07:15;;;;;;;0.05;0.05;;;;;;;;;;5049771;28;20591;-70
2022/07/11 00:09:41;;;;;;;0.10;0.10;;;;;;;;;;5044671;28;20371;-71
2022/07/11 00:12:08;;;;;;;0.07;0.07;;;;;;;;;;5049757;28;20299;-71
2022/07/11 00:14:34;;;;;;;0.00;0.00;;;;;;;;;;5044330;28;20272;-70
2022/07/11 00:17:01;;;;;;;0.00;0.00;;;;;;;;;;5049228;28;20254;-70
2022/07/11 00:19:27;;;;;;;0.10;0.10;;;;;;;;;;5044791;28;20271;-71
2022/07/11 00:21:54;;;;;;;0.10;0.10;;;;;;;;;;5047105;28;20386;-70
2022/07/11 00:24:21;;;;;;;0.10;0.10;;;;;;;;;;5045817;28;20205;-71
2022/07/11 00:26:48;;;;;;;0.05;0.05;;;;;;;;;;5047268;28;20239;-70
2022/07/11 00:29:15;;;;;;;0.03;0.03;;;;;;;;;;5046363;28;20211;-70
2022/07/11 00:31:41;;;;;;;0.10;0.10;;;;;;;;;;5046313;28;20275;-72
2022/07/11 00:34:08;;;;;;;0.10;0.10;;;;;;;;;;5046767;28;20215;-70
2022/07/11 00:36:34;;;;;;;0.10;0.10;;;;;;;;;;5045322;28;20247;-71
2022/07/11 00:39:01;;;;;;;0.00;0.00;;;;;;;;;;5047908;28;20447;-70
2022/07/11 00:41:28;;;;;;;0.10;0.10;;;;;;;;;;5044221;28;20302;-70
2022/07/11 00:43:56;;;;;;;0.10;0.10;;;;;;;;;;5048389;28;20234;-70
2022/07/11 00:46:23;;;;;;;0.08;0.08;;;;;;;;;;5043727;28;20274;-70
2022/07/11 00:48:49;;;;;;;0.03;0.03;;;;;;;;;;5049132;28;20207;-70
2022/07/11 00:51:16;;;;;;;0.10;0.10;;;;;;;;;;5042688;28;20471;-70
2022/07/11 00:53:43;;;;;;;0.10;0.10;;;;;;;;;;5049525;28;20279;-71
2022/07/11 00:56:10;;;;;;;0.10;0.10;;;;;;;;;;5041754;28;20341;-71
2022/07/11 00:58:37;;;;;;;0.10;0.10;;;;;;;;;;5050169;28;20215;-70
2022/07/11 01:01:05;;;;;;;0.10;0.10;;;;;;;;;;5040900;28;20239;-71
2022/07/11 01:03:31;;;;;;;0.03;0.03;;;;;;;;;;5050850;28;20205;-71
2022/07/11 01:05:57;;;;;;;0.10;0.10;;;;;;;;;;5040014;28;20253;-71
2022/07/11 01:08:24;;;;;;;0.10;0.10;;;;;;;;;;5052104;28;20311;-71
2022/07/11 01:10:50;;;;;;;0.10;0.10;;;;;;;;;;5039079;28;20598;-71
2022/07/11 01:13:16;;;;;;;0.10;0.10;;;;;;;;;;5052643;28;20211;-71
2022/07/11 01:15:44;;;;;;;0.10;0.10;;;;;;;;;;5038101;28;20384;-70
2022/07/11 01:18:10;;;;;;;0.10;0.10;;;;;;;;;;5053604;28;20283;-70
2022/07/11 01:20:36;;;;;;;0.10;0.10;;;;;;;;;;5037254;28;20520;-70
2022/07/11 01:23:06;;;;;;;0.10;0.10;;;;;;;;;;5054190;28;20193;-70
2022/07/11 01:25:34;;;;;;;0.10;0.10;;;;;;;;;;5036625;28;20239;-71
2022/07/11 01:28:01;;;;;;;0.10;0.10;;;;;;;;;;5054378;28;20204;-71
2022/07/11 01:30:28;;;;;;;0.10;0.10;;;;;;;;;;5036023;28;20245;-70
2022/07/11 01:32:55;;;;;;;0.10;0.10;;;;;;;;;;5055438;28;20472;-70
2022/07/11 01:35:21;;;;;;;0.10;0.10;;;;;;;;;;5034812;28;20378;-71
2022/07/11 01:37:48;;;;;;;0.10;0.10;;;;;;;;;;5055871;28;20195;-70
2022/07/11 01:40:16;;;;;;;0.10;0.10;;;;;;;;;;5033737;28;20237;-69
2022/07/11 01:42:42;;;;;;;0.10;0.10;;;;;;;;;;5056840;28;20196;-70
2022/07/11 01:45:10;;;;;;;0.00;0.00;;;;;;;;;;5032961;28;20456;-70
2022/07/11 01:47:36;;;;;;;0.10;0.10;;;;;;;;;;5057458;28;20202;-70
2022/07/11 01:50:03;;;;;;;0.10;0.10;;;;;;;;;;5042595;28;20274;-71
2022/07/11 01:52:29;;;;;;;0.00;0.00;;;;;;;;;;5031350;28;20399;-71
2022/07/11 01:54:55;;;;;;;0.00;0.00;;;;;;;;;;5042475;28;20211;-70
2022/07/11 01:57:23;;;;;;;0.10;0.10;;;;;;;;;;5047750;28;20557;-71
2022/07/11 01:59:50;;;;;;;0.10;0.10;;;;;;;;;;5042274;28;20389;-71
2022/07/11 02:02:16;;;;;;;0.10;0.10;;;;;;;;;;5047616;28;20566;-71
2022/07/11 02:04:44;;;;;;;0.10;0.10;;;;;;;;;;5042570;28;20331;-70
2022/07/11 02:07:11;;;;;;;0.10;0.10;;;;;;;;;;5047497;28;20437;-71
2022/07/11 02:09:37;;;;;;;0.10;0.10;;;;;;;;;;5042115;28;20208;-71
2022/07/11 02:12:04;;;;;;;0.00;0.00;;;;;;;;;;5047285;28;20305;-71
2022/07/11 02:14:32;;;;;;;0.10;0.10;;;;;;;;;;5042383;28;20223;-71
2022/07/11 02:16:58;;;;;;;0.00;0.00;;;;;;;;;;5046601;28;20458;-71
2022/07/11 02:19:24;;;;;;;0.10;0.10;;;;;;;;;;5043099;28;20345;-71
2022/07/11 02:21:51;;;;;;;0.00;0.00;;;;;;;;;;5045440;28;20252;-71
2022/07/11 02:24:18;;;;;;;0.10;0.10;;;;;;;;;;5044071;28;20233;-71
2022/07/11 02:26:44;;;;;;;0.10;0.10;;;;;;;;;;5044691;28;20267;-71
2022/07/11 02:29:11;;;;;;;0.10;0.10;;;;;;;;;;5044692;28;20237;-71
2022/07/11 02:31:38;;;;;;;0.10;0.10;;;;;;;;;;5043540;28;20251;-70
2022/07/11 02:34:05;;;;;;;0.10;0.10;;;;;;;;;;5045525;28;20560;-70
2022/07/11 02:36:31;;;;;;;0.03;0.03;;;;;;;;;;5042956;28;20276;-70
2022/07/11 02:38:58;;;;;;;0.10;0.10;;;;;;;;;;5046055;28;20468;-69
2022/07/11 02:41:25;;;;;;;0.00;0.00;;;;;;;;;;5041868;28;20244;-70
2022/07/11 02:43:51;;;;;;;0.00;0.00;;;;;;;;;;5046952;28;20214;-70
2022/07/11 02:46:17;;;;;;;0.10;0.10;;;;;;;;;;5044132;28;20263;-70
2022/07/11 02:48:45;;;;;;;0.10;0.10;;;;;;;;;;5052195;28;20206;-70
2022/07/11 02:51:11;;;;;;;0.10;0.10;;;;;;;;;;5044209;28;20305;-70
2022/07/11 02:53:38;;;;;;;0.10;0.10;;;;;;;;;;5052869;28;20375;-70
2022/07/11 02:56:06;;;;;;;0.00;0.00;;;;;;;;;;5043304;28;20496;-70
2022/07/11 02:58:32;;;;;;;0.10;0.10;;;;;;;;;;5053289;28;20214;-70
2022/07/11 03:00:58;;;;;;;0.10;0.10;;;;;;;;;;5042458;28;20263;-69
2022/07/11 03:03:25;;;;;;;0.10;0.10;;;;;;;;;;5054167;28;20504;-70
2022/07/11 03:05:52;;;;;;;0.10;0.10;;;;;;;;;;5041455;28;20303;-71
2022/07/11 03:08:19;;;;;;;0.10;0.10;;;;;;;;;;5055087;28;20312;-70
2022/07/11 03:10:45;;;;;;;0.10;0.10;;;;;;;;;;5040301;28;20241;-70
2022/07/11 03:13:12;;;;;;;0.10;0.10;;;;;;;;;;5056050;28;20210;-70
2022/07/11 03:15:38;;;;;;;0.10;0.10;;;;;;;;;;5039871;28;20259;-70
2022/07/11 03:18:04;;;;;;;0.10;0.10;;;;;;;;;;5056145;28;20226;-70
2022/07/11 03:20:31;;;;;;;0.10;0.10;;;;;;;;;;5038623;28;20247;-70
2022/07/11 03:22:58;;;;;;;0.10;0.10;;;;;;;;;;5057474;28;20193;-71
2022/07/11 03:25:25;;;;;;;0.07;0.07;;;;;;;;;;5037833;28;20250;-71
2022/07/11 03:27:51;;;;;;;0.00;0.00;;;;;;;;;;5058112;28;20459;-70
2022/07/11 03:30:18;;;;;;;0.10;0.10;;;;;;;;;;5036686;28;20427;-69
2022/07/11 03:32:51;;;;;;;0.00;0.00;;;;;;;;;;5058567;28;20199;-70
2022/07/11 03:38:03;;;;;;;0.10;0.10;;;;;;;;;;5056342;28;20394;-70
2022/07/11 03:40:29;;;;;;;0.10;0.10;;;;;;;;;;5038117;28;20617;-70
2022/07/11 03:42:56;;;;;;;0.10;0.10;;;;;;;;;;5057112;28;20198;-70
2022/07/11 03:45:22;;;;;;;0.10;0.10;;;;;;;;;;5036888;28;20293;-69
2022/07/11 03:47:48;;;;;;;0.10;0.10;;;;;;;;;;5058287;28;20197;-69
2022/07/11 03:50:15;;;;;;;0.10;0.10;;;;;;;;;;5036002;28;20435;-68
2022/07/11 03:52:41;;;;;;;0.10;0.10;;;;;;;;;;5058838;28;20282;-69
2022/07/11 03:55:09;;;;;;;0.10;0.10;;;;;;;;;;5035007;28;20207;-69
2022/07/11 03:57:36;;;;;;;0.10;0.10;;;;;;;;;;5057870;28;20314;-69
2022/07/11 04:00:04;;;;;;;0.10;0.10;;;;;;;;;;5044336;28;20230;-68
2022/07/11 04:02:30;;;;;;;0.10;0.10;;;;;;;;;;5049425;28;20307;-70
2022/07/11 04:04:56;;;;;;;0.00;0.00;;;;;;;;;;5044591;28;20482;-70
2022/07/11 04:07:24;;;;;;;0.10;0.10;;;;;;;;;;5049223;28;20245;-69
2022/07/11 04:09:50;;;;;;;0.10;0.10;;;;;;;;;;5044621;28;20368;-69
2022/07/11 04:12:18;;;;;;;0.10;0.10;;;;;;;;;;5049777;28;20371;-69
2022/07/11 04:14:45;;;;;;;0.07;0.07;;;;;;;;;;5044563;28;20239;-69
2022/07/11 04:17:11;;;;;;;0.10;0.10;;;;;;;;;;5049373;28;20241;-69
2022/07/11 04:19:38;;;;;;;0.10;0.10;;;;;;;;;;5044484;28;20256;-69
2022/07/11 04:22:04;;;;;;;0.10;0.10;;;;;;;;;;5049135;28;20238;-69
2022/07/11 04:24:31;;;;;;;0.10;0.10;;;;;;;;;;5044349;28;20382;-69
2022/07/11 04:26:57;;;;;;;0.10;0.10;;;;;;;;;;5048113;28;20456;-70
2022/07/11 04:29:25;;;;;;;0.10;0.10;;;;;;;;;;5045078;28;20217;-69
2022/07/11 04:31:51;;;;;;;0.10;0.10;;;;;;;;;;5047523;28;20397;-70
2022/07/11 04:34:18;;;;;;;0.10;0.10;;;;;;;;;;5045942;28;20207;-69
2022/07/11 04:36:44;;;;;;;0.00;0.00;;;;;;;;;;5046418;28;20242;-70
2022/07/11 04:39:10;;;;;;;0.10;0.10;;;;;;;;;;5046891;28;20213;-68
2022/07/11 04:41:37;;;;;;;0.10;0.10;;;;;;;;;;5045361;28;20305;-69
2022/07/11 04:44:03;;;;;;;0.00;0.00;;;;;;;;;;5047446;28;20207;-69
2022/07/11 04:46:31;;;;;;;0.10;0.10;;;;;;;;;;5044463;28;20239;-69
2022/07/11 04:48:58;;;;;;;0.10;0.10;;;;;;;;;;5048175;28;20206;-69
2022/07/11 04:51:25;;;;;;;0.10;0.10;;;;;;;;;;5043616;28;20282;-69
2022/07/11 04:53:51;;;;;;;0.10;0.10;;;;;;;;;;5049210;28;20425;-70
2022/07/11 04:56:18;;;;;;;0.10;0.10;;;;;;;;;;5042808;28;20246;-69
2022/07/11 04:58:44;;;;;;;0.10;0.10;;;;;;;;;;5049350;28;20220;-69
2022/07/11 05:01:10;;;;;;;0.10;0.10;;;;;;;;;;5041749;28;20238;-70
2022/07/11 05:03:38;;;;;;;0.10;0.10;;;;;;;;;;5050698;28;20392;-69
2022/07/11 05:06:06;;;;;;;0.10;0.10;;;;;;;;;;5040797;28;20243;-69
2022/07/11 05:08:36;;;;;;;0.00;0.00;;;;;;;;;;5050509;28;20512;-69
2022/07/11 05:11:02;;;;;;;0.10;0.10;;;;;;;;;;5040366;28;20241;-69
2022/07/11 05:13:28;;;;;;;0.10;0.10;;;;;;;;;;5051504;28;20340;-69
2022/07/11 05:15:55;;;;;;;0.10;0.10;;;;;;;;;;5039410;28;20238;-69
2022/07/11 05:18:21;;;;;;;0.10;0.10;;;;;;;;;;5052261;28;20299;-69
2022/07/11 05:20:49;;;;;;;0.10;0.10;;;;;;;;;;5038591;28;20305;-70
2022/07/11 05:23:15;;;;;;;0.10;0.10;;;;;;;;;;5052997;28;20205;-70
2022/07/11 05:25:42;;;;;;;0.10;0.10;;;;;;;;;;5037656;28;20245;-70
2022/07/11 05:28:08;;;;;;;0.10;0.10;;;;;;;;;;5053557;28;20265;-69
2022/07/11 05:30:34;;;;;;;0.10;0.10;;;;;;;;;;5036468;28;20337;-69
2022/07/11 05:33:01;;;;;;;0.10;0.10;;;;;;;;;;5054603;28;20353;-69
2022/07/11 05:35:27;;;;;;;0.10;0.10;;;;;;;;;;5035809;28;20386;-69
2022/07/11 05:37:55;;;;;;;0.10;0.10;;;;;;;;;;5055070;28;20270;-70
2022/07/11 05:40:21;;;;;;;0.10;0.10;;;;;;;;;;5034849;28;20210;-69
2022/07/11 05:42:48;;;;;;;0.10;0.10;;;;;;;;;;5056173;28;20457;-69
2022/07/11 05:45:14;;;;;;;0.10;0.10;;;;;;;;;;5033595;28;20206;-70
2022/07/11 05:47:40;;;;;;;0.00;0.00;;;;;;;;;;5057311;28;20193;-69
2022/07/11 05:50:07;;;;;;;0.10;0.10;;;;;;;;;;5032876;28;20211;-69
2022/07/11 05:52:34;;;;;;;0.10;0.10;;;;;;;;;;5057559;28;20216;-71
2022/07/11 05:55:01;;;;;;;0.00;0.00;;;;;;;;;;5042959;28;20515;-70
2022/07/11 05:57:30;;;;;;;0.10;0.10;;;;;;;;;;5047656;28;20245;-70
2022/07/11 05:59:56;;;;;;;0.10;0.10;;;;;;;;;;5042657;28;20233;-70
2022/07/11 06:02:23;;;;;;;0.10;0.10;;;;;;;;;;5047691;28;20248;-70
2022/07/11 06:04:49;;;;;;;0.10;0.10;;;;;;;;;;5042314;28;20277;-69
2022/07/11 06:08:40;;;;;;;0.10;0.10;;;;;;;;;;5047598;28;20374;-69
2022/07/11 06:10:02;;;;;;;0.10;0.10;;;;;;;;;;5042308;28;20206;-69
2022/07/11 06:12:28;;;;;;;0.10;0.10;;;;;;;;;;5047464;28;20266;-69
2022/07/11 06:14:55;;;;;;;0.10;0.10;;;;;;;;;;5042214;28;20229;-69
2022/07/11 06:17:21;;;;;;;0.10;0.10;;;;;;;;;;5047203;28;20321;-68
2022/07/11 06:19:48;;;;;;;0.10;0.10;;;;;;;;;;5041831;28;20214;-70
2022/07/11 06:22:15;;;;;;;0.10;0.10;;;;;;;;;;5047485;28;20233;-68
2022/07/11 06:24:41;;;;;;;0.10;0.10;;;;;;;;;;5043164;28;20233;-69
2022/07/11 06:27:09;;;;;;;0.10;0.10;;;;;;;;;;5048333;28;20303;-68
2022/07/11 06:29:35;;;;;;;0.10;0.10;;;;;;;;;;5043112;28;20213;-69
2022/07/11 06:32:02;;;;;;;0.00;0.00;;;;;;;;;;5046804;28;20248;-69
2022/07/11 06:34:28;;;;;;;0.10;0.10;;;;;;;;;;5042385;28;20206;-68
2022/07/11 06:36:55;;;;;;;0.10;0.10;;;;;;;;;;5045806;28;20242;-69
2022/07/11 06:39:21;;;;;;;0.10;0.10;;;;;;;;;;5043273;28;20355;-69
2022/07/11 06:41:47;;;;;;;0.10;0.10;;;;;;;;;;5044916;28;20574;-69
2022/07/11 06:44:15;;;;;;;0.00;0.00;;;;;;;;;;5044064;28;20207;-68
2022/07/11 06:46:41;;;;;;;0.10;0.10;;;;;;;;;;5043865;28;20259;-69
2022/07/11 06:49:08;;;;;;;0.10;0.10;;;;;;;;;;5044820;28;20202;-69
2022/07/11 06:51:35;;;;;;;0.10;0.10;;;;;;;;;;5043334;28;20250;-68
2022/07/11 06:54:01;;;;;;;0.10;0.10;;;;;;;;;;5045622;28;20235;-69
2022/07/11 06:56:27;;;;;;;0.10;0.10;;;;;;;;;;5042330;28;20243;-70
2022/07/11 06:58:54;;;;;;;0.10;0.10;;;;;;;;;;5046579;28;20268;-69
2022/07/11 07:01:21;;;;;;;0.10;0.10;;;;;;;;;;5041024;28;20241;-70
2022/07/11 07:03:48;;;;;;;0.10;0.10;;;;;;;;;;5047642;28;20208;-69
2022/07/11 07:06:14;;;;;;;0.00;0.00;;;;;;;;;;5040712;28;20247;-70
2022/07/11 07:08:40;;;;;;;0.07;0.07;;;;;;;;;;5047990;28;20218;-70
2022/07/11 07:11:07;;;;;;;0.00;0.00;;;;;;;;;;5039635;28;20239;-69
2022/07/11 07:13:33;;;;;;;0.10;0.10;;;;;;;;;;5049344;28;20213;-69
2022/07/11 07:15:59;;;;;;;0.10;0.10;;;;;;;;;;5038526;28;20452;-69
2022/07/11 07:18:27;;;;;;;0.10;0.10;;;;;;;;;;5050058;28;20598;-69
2022/07/11 07:20:53;;;;;;;0.10;0.10;;;;;;;;;;5037675;28;20239;-68
2022/07/11 07:23:20;;;;;;;0.00;0.00;;;;;;;;;;5050722;28;20589;-68
2022/07/11 07:25:46;;;;;;;0.00;0.00;;;;;;;;;;5036852;28;20270;-69
2022/07/11 07:28:13;;;;;;;0.10;0.10;;;;;;;;;;5051620;28;20208;-70
2022/07/11 07:30:39;;;;;;;0.10;0.10;;;;;;;;;;5036100;28;20315;-69
2022/07/11 07:33:05;;;;;;;0.10;0.10;;;;;;;;;;5056175;28;20264;-69
2022/07/11 07:35:33;;;;;;;0.10;0.10;;;;;;;;;;5038640;28;20487;-70
2022/07/11 07:38:00;;;;;;;0.10;0.10;;;;;;;;;;5057319;28;20211;-69
2022/07/11 07:40:27;;;;;;;0.07;0.07;;;;;;;;;;5037695;28;20258;-69
2022/07/11 07:42:54;;;;;;;0.10;0.10;;;;;;;;;;5057861;28;20217;-70
2022/07/11 07:45:21;;;;;;;0.00;0.00;;;;;;;;;;5036910;28;20207;-69
2022/07/11 07:47:47;;;;;;;0.10;0.10;;;;;;;;;;5058240;28;20196;-69
2022/07/11 07:50:13;;;;;;;0.10;0.10;;;;;;;;;;5035513;28;20236;-70
2022/07/11 07:52:41;;;;;;;0.00;0.00;;;;;;;;;;5059146;28;20408;-70
2022/07/11 07:55:08;;;;;;;0.00;0.00;;;;;;;;;;5035160;28;20205;-69
2022/07/11 07:57:34;;;;;;;0.10;0.10;;;;;;;;;;5059835;28;20272;-69
2022/07/11 08:02:41;;;;;;;0.10;0.10;;;;;;;;;;5044030;28;20262;-70
2022/07/11 08:05:08;;;;;;;0.10;0.10;;;;;;;;;;5034872;28;20252;-69
2022/07/11 08:07:35;;;;;;;0.10;0.10;;;;;;;;;;5059479;28;20543;-70
2022/07/11 08:10:03;;;;;;;0.10;0.10;;;;;;;;;;5044959;28;20417;-70
2022/07/11 08:12:29;;;;;;;0.00;0.00;;;;;;;;;;5049757;28;20258;-69
2022/07/11 08:14:55;;;;;;;0.00;0.00;;;;;;;;;;5044583;28;20492;-69
2022/07/11 08:17:22;;;;;;;0.10;0.10;;;;;;;;;;5049601;28;20245;-69
2022/07/11 08:19:48;;;;;;;0.00;0.00;;;;;;;;;;5044775;28;20359;-70
2022/07/11 08:22:15;;;;;;;0.10;0.10;;;;;;;;;;5049697;28;20466;-69
2022/07/11 08:24:41;;;;;;;0.10;0.10;;;;;;;;;;5044427;28;20207;-69
2022/07/11 08:27:09;;;;;;;0.00;0.00;;;;;;;;;;5049897;28;20240;-69
2022/07/11 08:29:35;;;;;;;0.00;0.00;;;;;;;;;;5044441;28;20281;-70
2022/07/11 08:32:01;;;;;;;0.00;0.00;;;;;;;;;;5049048;28;20243;-70
2022/07/11 08:34:28;;;;;;;0.05;0.05;;;;;;;;;;5044960;28;20233;-69
2022/07/11 08:36:54;;;;;;;0.03;0.03;;;;;;;;;;5048357;28;20247;-70
2022/07/11 08:39:21;;;;;;;0.03;0.03;;;;;;;;;;5045628;28;20224;-69
2022/07/11 08:41:47;;;;;;;0.00;0.00;;;;;;;;;;5047108;28;20242;-69
2022/07/11 08:44:15;;;;;;;0.10;0.10;;;;;;;;;;5045781;28;20213;-70
2022/07/11 08:46:42;;;;;;;0.10;0.10;;;;;;;;;;5046389;28;20274;-69
2022/07/11 08:49:09;;;;;;;0.00;0.00;;;;;;;;;;5047208;28;20240;-69
2022/07/11 08:51:37;;;;;;;0.00;0.00;;;;;;;;;;5045475;28;20236;-69
2022/07/11 08:54:04;;;;;;;0.90;0.90;;;;;;;;;;5047403;28;20205;-70
2022/07/11 08:56:31;;;;;;;0.10;0.10;;;;;;;;;;5044555;28;20256;-69
2022/07/11 08:58:59;;;;;;;0.00;0.00;;;;;;;;;;5048206;28;20212;-70
2022/07/11 09:01:29;;;;;;;0.00;0.00;;;;;;;;;;5043860;28;20240;-68
2022/07/11 09:03:56;;;;;;;0.10;0.10;;;;;;;;;;5048975;28;20244;-70
2022/07/11 09:06:22;;;;;;;0.10;0.10;;;;;;;;;;5042903;28;20423;-70
2022/07/11 09:08:49;;;;;;;0.10;0.10;;;;;;;;;;5050078;28;20207;-69
2022/07/11 09:11:15;;;;;;;0.10;0.10;;;;;;;;;;5042390;28;20239;-70
2022/07/11 09:13:42;;;;;;;0.00;0.00;;;;;;;;;;5050292;28;20202;-69
2022/07/11 09:16:09;;;;;;;0.10;0.10;;;;;;;;;;5041493;28;20242;-69
2022/07/11 09:18:38;;;;;;;0.10;0.10;;;;;;;;;;5050583;28;20413;-68
2022/07/11 09:26:36;;;;;;;0.10;0.10;;;;;;;;;;5044790;28;20282;-69
2022/07/11 09:29:08;;;;;;;0.00;0.00;;;;;;;;;;5046857;28;20206;-69
2022/07/11 09:31:35;;;;;;;0.00;0.00;;;;;;;;;;5044921;28;20295;-69
2022/07/11 09:34:08;;;;;;;0.05;0.05;;;;;;;;;;5047249;28;20202;-70
2022/07/11 09:36:43;;;;;;;0.05;0.05;;;;;;;;;;5044627;28;20251;-69
2022/07/11 09:39:10;;;;;;;0.08;0.08;;;;;;;;;;5045897;28;20193;-69
2022/07/11 09:41:37;;;;;;;0.10;0.10;;;;;;;;;;5044776;28;20279;-70
2022/07/11 09:44:08;;;;;;;0.00;0.00;;;;;;;;;;5046733;28;20230;-69
2022/07/11 09:46:35;;;;;;;0.00;0.00;;;;;;;;;;5044403;28;20246;-69
2022/07/11 09:49:01;;;;;;;0.00;0.00;;;;;;;;;;5047074;28;20205;-69
2022/07/11 09:51:29;;;;;;;0.00;0.00;;;;;;;;;;5043606;28;20349;-70
2022/07/11 09:53:56;;;;;;;0.00;0.00;;;;;;;;;;5047179;28;20202;-70
2022/07/11 09:56:24;;;;;;;0.00;0.00;;;;;;;;;;5042881;28;20239;-70
2022/07/11 09:58:58;;;;;;;0.00;0.00;;;;;;;;;;5047823;28;20221;-70
2022/07/11 10:01:26;;;;;;;0.10;0.10;;;;;;;;;;5043067;28;20253;-70
2022/07/11 10:03:52;;;;;;;0.00;0.00;;;;;;;;;;5047617;28;20231;-70
2022/07/11 10:06:18;;;;;;;0.00;0.00;;;;;;;;;;5042123;28;20246;-69
2022/07/11 10:08:46;;;;;;;0.05;0.05;;;;;;;;;;5048440;28;20294;-70
2022/07/11 10:11:13;;;;;;;0.10;0.10;;;;;;;;;;5041221;28;20249;-70
2022/07/11 10:13:39;;;;;;;0.00;0.00;;;;;;;;;;5049099;28;20270;-70
2022/07/11 10:16:09;;;;;;;0.10;0.10;;;;;;;;;;5040580;28;20310;-69
2022/07/11 10:18:41;;;;;;;0.05;0.05;;;;;;;;;;5050033;28;20304;-70
2022/07/11 10:21:08;;;;;;;0.03;0.03;;;;;;;;;;5041335;28;20253;-68
2022/07/11 10:23:37;;;;;;;0.10;0.10;;;;;;;;;;5050522;28;20312;-68
2022/07/11 10:26:07;;;;;;;0.00;0.00;;;;;;;;;;5040733;28;20241;-69
2022/07/11 10:28:36;;;;;;;0.10;0.10;;;;;;;;;;5050341;28;20195;-70
2022/07/11 10:31:03;;;;;;;0.05;0.05;;;;;;;;;;5040426;28;20299;-70
2022/07/11 10:33:30;;;;;;;0.10;0.10;;;;;;;;;;5050884;28;20202;-69
2022/07/11 10:35:56;;;;;;;0.00;0.00;;;;;;;;;;5039706;28;20327;-70
2022/07/11 10:38:24;;;;;;;0.00;0.00;;;;;;;;;;5052334;28;20207;-70
2022/07/11 10:40:51;;;;;;;0.00;0.00;;;;;;;;;;5038734;28;20246;-70
2022/07/11 10:46:13;;;;;;;0.10;0.10;;;;;;;;;;5195173;27;20603;-69
2022/07/11 10:48:53;;;;;;;0.10;0.10;;;;;;;;;;5161698;27;20225;-69
2022/07/11 10:51:23;;;;;;;0.00;0.00;;;;;;;;;;5151170;27;20238;-70
2022/07/11 10:53:51;;;;;;;0.08;0.08;;;;;;;;;;5161873;27;20207;-69
2022/07/11 10:56:25;;;;;;;0.00;0.00;;;;;;;;;;5150781;27;20247;-69
2022/07/11 10:58:59;;;;;;;0.10;0.10;;;;;;;;;;5161792;27;20194;-69
2022/07/11 11:01:27;;;;;;;0.00;0.00;;;;;;;;;;5150869;27;20304;-69
2022/07/11 11:04:14;;;;;;;0.00;0.00;;;;;;;;;;5161709;27;20204;-69
2022/07/11 11:06:55;;;;;;;0.00;0.00;;;;;;;;;;5150368;27;20308;-69
2022/07/11 11:09:37;;;;;;;0.08;0.08;;;;;;;;;;5162045;27;20478;-69
2022/07/11 11:12:03;;;;;;;0.00;0.00;;;;;;;;;;5150153;27;20264;-68
2022/07/11 11:14:30;;;;;;;0.00;0.00;;;;;;;;;;5161971;27;20199;-69
2022/07/11 11:17:19;;;;;;;0.05;0.05;;;;;;;;;;5144888;27;20314;-69
2022/07/11 11:19:52;;;;;;;0.00;0.00;;;;;;;;;;5141022;28;20275;-69
2022/07/11 11:22:19;;;;;;;0.00;0.00;;;;;;;;;;5128973;28;20312;-69
2022/07/11 11:24:46;;;;;;;0.00;0.00;;;;;;;;;;5140530;28;20229;-69
2022/07/11 11:27:16;;;;;;;0.00;0.00;;;;;;;;;;5128563;28;20587;-68
2022/07/11 11:29:43;;;;;;;0.03;0.03;;;;;;;;;;5140750;28;20208;-69
2022/07/11 11:32:10;;;;;;;0.00;0.00;;;;;;;;;;5129280;28;20309;-69
2022/07/11 11:34:37;;;;;;;0.00;0.00;;;;;;;;;;5140898;28;20388;-68
2022/07/11 11:37:04;;;;;;;0.00;0.00;;;;;;;;;;5129112;28;20435;-69
2022/07/11 11:39:32;;;;;;;0.00;0.00;;;;;;;;;;5140890;28;20229;-69
2022/07/11 11:42:02;;;;;;;0.00;0.00;;;;;;;;;;5129045;28;20477;-68
2022/07/11 11:44:28;;;;;;;0.10;0.10;;;;;;;;;;5140329;28;20433;-68
2022/07/11 11:46:55;;;;;;;0.03;0.03;;;;;;;;;;5128971;28;20241;-68
2022/07/11 11:49:22;;;;;;;0.00;0.00;;;;;;;;;;5140443;28;20202;-68
2022/07/11 11:51:49;;;;;;;0.10;0.10;;;;;;;;;;5128866;28;20249;-69
2022/07/11 11:54:23;;;;;;;0.00;0.00;;;;;;;;;;5139963;28;20224;-68
2022/07/11 11:56:49;;;;;;;0.00;0.00;;;;;;;;;;5119615;28;20268;-67
2022/07/11 11:59:15;;;;;;;0.00;0.00;;;;;;;;;;5126704;28;20391;-67
2022/07/11 12:01:43;;;;;;;0.05;0.05;;;;;;;;;;5114953;28;20241;-68
2022/07/11 12:04:11;;;;;;;0.00;0.00;;;;;;;;;;5126095;28;20211;-69
2022/07/11 12:06:40;;;;;;;0.00;0.00;;;;;;;;;;5115110;28;20426;-69
2022/07/11 12:09:09;;;;;;;0.00;0.00;;;;;;;;;;5125955;28;20240;-68
2022/07/11 12:11:36;;;;;;;0.00;0.00;;;;;;;;;;5114980;28;20240;-68
2022/07/11 12:14:03;;;;;;;0.00;0.00;;;;;;;;;;5126052;28;20232;-68
2022/07/11 12:16:42;;;;;;;0.00;0.00;;;;;;;;;;5114832;28;20236;-68
2022/07/11 12:19:11;;;;;;;0.10;0.10;;;;;;;;;;5125800;28;20275;-69
2022/07/11 12:21:40;;;;;;;0.00;0.00;;;;;;;;;;5115063;28;20240;-69
2022/07/11 12:24:07;;;;;;;0.00;0.00;;;;;;;;;;5126091;28;20205;-69
2022/07/11 12:26:34;;;;;;;0.00;0.00;;;;;;;;;;5114641;28;20249;-68
2022/07/11 12:29:05;;;;;;;0.10;0.10;;;;;;;;;;5125917;28;20366;-67
2022/07/11 12:31:40;;;;;;;0.00;0.00;;;;;;;;;;5114563;28;20238;-68
2022/07/11 12:34:07;;;;;;;0.00;0.00;;;;;;;;;;5125584;28;20203;-68
2022/07/11 12:36:34;;;;;;;0.00;0.00;;;;;;;;;;5114530;28;20241;-68
2022/07/11 12:39:02;;;;;;;0.00;0.00;;;;;;;;;;5125536;28;20202;-68
2022/07/11 12:41:29;;;;;;;0.10;0.10;;;;;;;;;;5114383;28;20237;-68
2022/07/11 12:46:41;;;;;;;0.00;0.00;;;;;;;;;;5114393;28;20283;-69
2022/07/11 12:49:08;;;;;;;0.00;0.00;;;;;;;;;;5125544;28;20499;-70
2022/07/11 12:51:37;;;;;;;0.00;0.00;;;;;;;;;;5114429;28;20276;-71
2022/07/11 12:54:05;;;;;;;0.00;0.00;;;;;;;;;;5125127;28;20213;-72
2022/07/11 12:56:32;;;;;;;0.08;0.08;;;;;;;;;;5114178;28;20271;-71
2022/07/11 12:58:58;;;;;;;0.10;0.10;;;;;;;;;;5125054;28;20250;-71
2022/07/11 13:01:25;;;;;;;0.00;0.00;;;;;;;;;;5114284;28;20500;-69
2022/07/11 13:03:52;;;;;;;0.10;0.10;;;;;;;;;;5125006;28;20205;-68
2022/07/11 13:08:41;;;;;;;0.00;0.00;;;;;;;;;;5114187;28;20608;-68
2022/07/11 13:09:05;;;;;;;0.00;0.00;;;;;;;;;;5124025;28;20212;-68
2022/07/11 13:11:32;;;;;;;0.10;0.10;;;;;;;;;;5114019;28;20248;-68
2022/07/11 13:13:58;;;;;;;0.10;0.10;;;;;;;;;;5124887;28;20250;-68
2022/07/11 13:16:25;;;;;;;0.08;0.08;;;;;;;;;;5113798;28;20241;-68
2022/07/11 13:18:51;;;;;;;0.10;0.10;;;;;;;;;;5124546;28;20205;-68
2022/07/11 13:21:18;;;;;;;0.00;0.00;;;;;;;;;;5114146;28;20263;-68
2022/07/11 13:23:45;;;;;;;0.00;0.00;;;;;;;;;;5124768;28;20367;-68
2022/07/11 13:26:13;;;;;;;0.10;0.10;;;;;;;;;;5113864;28;20241;-69
2022/07/11 13:28:39;;;;;;;0.10;0.10;;;;;;;;;;5124520;28;20474;-68
2022/07/11 13:31:06;;;;;;;0.00;0.00;;;;;;;;;;5113728;28;20286;-68
2022/07/11 13:33:33;;;;;;;0.00;0.00;;;;;;;;;;5124464;28;20395;-67
2022/07/11 13:36:00;;;;;;;0.00;0.00;;;;;;;;;;5113736;28;20263;-67
2022/07/11 13:38:26;;;;;;;0.08;0.08;;;;;;;;;;5124037;28;20205;-69
2022/07/11 13:40:53;;;;;;;0.00;0.00;;;;;;;;;;5113585;28;20238;-68
2022/07/11 13:43:20;;;;;;;0.10;0.10;;;;;;;;;;5124092;28;20365;-68
2022/07/11 13:45:47;;;;;;;0.00;0.00;;;;;;;;;;5113388;28;20244;-68
2022/07/11 13:48:14;;;;;;;0.00;0.00;;;;;;;;;;5123977;28;20271;-68
2022/07/11 13:50:40;;;;;;;0.00;0.00;;;;;;;;;;5113828;28;20241;-68
2022/07/11 13:53:07;;;;;;;0.00;0.00;;;;;;;;;;5123872;28;20430;-68
2022/07/11 13:55:33;;;;;;;0.10;0.10;;;;;;;;;;5113907;28;20238;-67
2022/07/11 13:58:01;;;;;;;0.00;0.00;;;;;;;;;;5123749;28;20385;-68
2022/07/11 14:00:29;;;;;;;0.00;0.00;;;;;;;;;;5113877;28;20247;-68
2022/07/11 14:02:56;;;;;;;0.00;0.00;;;;;;;;;;5123694;28;20382;-67
2022/07/11 14:05:22;;;;;;;0.00;0.00;;;;;;;;;;5113719;28;20221;-68
2022/07/11 14:07:49;;;;;;;0.00;0.00;;;;;;;;;;5123265;28;20194;-68
2022/07/11 14:10:15;;;;;;;0.00;0.00;;;;;;;;;;5113846;28;20233;-68
2022/07/11 14:12:42;;;;;;;0.00;0.00;;;;;;;;;;5123150;28;20289;-67
2022/07/11 14:15:09;;;;;;;0.00;0.00;;;;;;;;;;5113997;28;20422;-67
2022/07/11 14:17:37;;;;;;;0.05;0.05;;;;;;;;;;5123305;28;20598;-67
2022/07/11 14:20:04;;;;;;;0.00;0.00;;;;;;;;;;5123854;28;20228;-68
2022/07/11 14:22:31;;;;;;;0.00;0.00;;;;;;;;;;5095258;28;20237;-68
2022/07/11 14:24:57;;;;;;;0.08;0.08;;;;;;;;;;5124155;28;20526;-68
2022/07/11 14:27:24;;;;;;;0.00;0.00;;;;;;;;;;5112295;28;20247;-68
2022/07/11 14:29:51;;;;;;;0.10;0.10;;;;;;;;;;5123277;28;20237;-68
2022/07/11 14:32:18;;;;;;;0.10;0.10;;;;;;;;;;5111357;28;20248;-68
2022/07/11 14:34:45;;;;;;;0.10;0.10;;;;;;;;;;5123274;28;20203;-69
2022/07/11 14:37:12;;;;;;;0.10;0.10;;;;;;;;;;5111223;28;20309;-69
2022/07/11 14:39:38;;;;;;;0.00;0.00;;;;;;;;;;5123107;28;20235;-68
2022/07/11 14:42:05;;;;;;;0.00;0.00;;;;;;;;;;5111201;28;20571;-67
2022/07/11 14:44:31;;;;;;;0.08;0.08;;;;;;;;;;5122786;28;20470;-69
2022/07/11 14:46:57;;;;;;;0.00;0.00;;;;;;;;;;5111096;28;20241;-68
2022/07/11 14:49:24;;;;;;;0.00;0.00;;;;;;;;;;5123022;28;20271;-69
2022/07/11 14:51:51;;;;;;;0.00;0.00;;;;;;;;;;5111285;28;20245;-68
2022/07/11 14:54:18;;;;;;;0.05;0.05;;;;;;;;;;5122929;28;20225;-69
2022/07/11 14:56:44;;;;;;;0.00;0.00;;;;;;;;;;5111223;28;20240;-68
2022/07/11 14:59:12;;;;;;;0.00;0.00;;;;;;;;;;5122771;28;20274;-68
2022/07/11 15:01:38;;;;;;;0.00;0.00;;;;;;;;;;5111290;28;20241;-69